Time;durP1;ratioP1;P1;durP2;ratioP2;P2;SDS_P1;SDS_P2;PMS_P1;PMS_P2;Temp;Humidity;BMP_temperature;BMP_pressure;BME280_temperature;BME280_humidity;BME280_pressure;Samples;Min_cycle;Max_cycle;Signal;HPM_P1;HPM_P2
2023/12/07 00:01:34;;;;;;;28.40;7.35;;;;;;;4.36;97.17;100953.16;5073540;28;20114;-73
2023/12/07 00:04:00;;;;;;;22.08;7.32;;;;;;;4.28;97.63;100958.41;5073611;28;20033;-73
2023/12/07 00:06:26;;;;;;;24.30;9.15;;;;;;;4.28;97.84;100964.53;5056871;28;20097;-71
2023/12/07 00:08:51;;;;;;;34.65;8.18;;;;;;;4.04;98.69;100979.28;5060654;28;20024;-73
2023/12/07 00:11:17;;;;;;;16.90;7.30;;;;;;;4.14;98.68;100977.13;5059208;28;20093;-73
2023/12/07 00:13:42;;;;;;;19.73;6.70;;;;;;;4.18;98.75;100970.13;5057240;28;20021;-72
2023/12/07 00:16:08;;;;;;;20.75;9.25;;;;;;;4.16;97.83;100968.88;5056070;28;20040;-73
2023/12/07 00:18:33;;;;;;;22.77;7.80;;;;;;;4.19;98.23;100965.56;5078237;28;20411;-73
2023/12/07 00:20:59;;;;;;;10.70;6.38;;;;;;;4.14;98.63;100963.06;5043780;28;20056;-72
2023/12/07 00:23:24;;;;;;;19.35;7.57;;;;;;;4.17;98.51;100970.41;5058994;28;20032;-73
2023/12/07 00:25:50;;;;;;;17.77;7.72;;;;;;;4.13;99.11;100966.78;5057714;28;20064;-74
2023/12/07 00:28:16;;;;;;;13.18;6.63;;;;;;;4.17;98.77;100970.41;5052893;28;20098;-73
2023/12/07 00:30:42;;;;;;;26.05;8.57;;;;;;;4.20;98.34;100973.25;5057094;28;20688;-73
2023/12/07 00:33:09;;;;;;;19.48;8.48;;;;;;;4.12;98.38;100991.88;5054701;28;20041;-73
2023/12/07 00:35:35;;;;;;;12.50;6.07;;;;;;;4.13;98.40;100991.56;5057825;28;20042;-73
2023/12/07 00:38:01;;;;;;;16.55;6.97;;;;;;;4.12;98.92;100991.88;5058613;28;20040;-72
2023/12/07 00:40:27;;;;;;;20.95;9.30;;;;;;;4.07;98.75;100989.31;5054247;28;20020;-73
2023/12/07 00:42:52;;;;;;;15.45;6.80;;;;;;;4.13;99.17;100990.78;5055767;28;20048;-73
2023/12/07 00:45:18;;;;;;;16.58;6.18;;;;;;;4.12;99.04;100989.22;5059465;28;20025;-73
2023/12/07 00:47:43;;;;;;;13.55;6.80;;;;;;;4.12;99.03;100999.88;5054763;28;20033;-74
2023/12/07 00:50:13;;;;;;;17.35;6.75;;;;;;;4.16;98.73;100995.50;5053519;28;20061;-73
2023/12/07 00:52:38;;;;;;;19.63;7.35;;;;;;;4.20;98.65;101002.56;5068732;28;20068;-74
2023/12/07 00:55:04;;;;;;;18.50;7.28;;;;;;;4.20;98.34;100996.47;5051193;28;20067;-73
2023/12/07 00:57:29;;;;;;;21.70;7.85;;;;;;;4.27;98.00;100997.63;5067651;28;20155;-72
2023/12/07 00:59:55;;;;;;;17.40;8.48;;;;;;;4.22;98.36;100988.97;5053757;28;20463;-73
2023/12/07 01:02:20;;;;;;;17.80;6.93;;;;;;;4.20;98.31;100991.16;5071443;28;21251;-72
2023/12/07 01:04:46;;;;;;;22.45;6.88;;;;;;;4.16;98.42;101004.25;5061378;28;20423;-73
2023/12/07 01:07:12;;;;;;;13.95;7.05;;;;;;;4.27;97.97;101007.50;5052915;28;20093;-73
2023/12/07 01:09:38;;;;;;;15.32;6.70;;;;;;;4.23;98.48;101003.84;5054263;28;20039;-73
2023/12/07 01:12:03;;;;;;;14.60;6.40;;;;;;;4.22;98.58;101004.97;5070614;28;20563;-73
2023/12/07 01:14:29;;;;;;;25.70;8.68;;;;;;;4.20;98.27;101002.56;5052742;28;20056;-73
2023/12/07 01:16:54;;;;;;;13.25;6.40;;;;;;;4.21;98.40;101016.69;5053732;28;20491;-73
2023/12/07 01:19:21;;;;;;;21.45;7.35;;;;;;;4.24;98.33;101010.78;5068524;28;20268;-73
2023/12/07 01:21:46;;;;;;;24.25;5.57;;;;;;;4.15;98.61;101025.91;5036676;28;20056;-73
2023/12/07 01:24:12;;;;;;;9.93;6.22;;;;;;;4.17;98.29;101026.38;5055178;28;20115;-73
2023/12/07 01:26:37;;;;;;;17.20;7.95;;;;;;;4.19;98.55;101027.66;5056949;28;20118;-73
2023/12/07 01:29:03;;;;;;;12.80;6.50;;;;;;;4.20;98.61;101039.88;5054652;28;20107;-73
2023/12/07 01:31:29;;;;;;;13.85;6.75;;;;;;;4.22;98.49;101045.69;5061438;28;20040;-73
2023/12/07 01:33:55;;;;;;;9.60;6.28;;;;;;;4.22;98.45;101039.59;5053911;28;20544;-73
2023/12/07 01:36:20;;;;;;;10.40;6.60;;;;;;;4.20;98.16;101044.44;5057373;28;20123;-73
2023/12/07 01:38:46;;;;;;;14.18;6.18;;;;;;;4.25;98.33;101044.31;5054807;28;20067;-73
2023/12/07 01:41:12;;;;;;;15.73;6.45;;;;;;;4.24;98.04;101051.50;5040858;28;20127;-73
2023/12/07 01:43:37;;;;;;;12.23;6.60;;;;;;;4.31;98.10;101059.09;5074261;28;20131;-74
2023/12/07 01:46:03;;;;;;;14.93;6.03;;;;;;;4.26;98.16;101048.53;5055555;28;20037;-74
2023/12/07 01:48:29;;;;;;;16.13;6.53;;;;;;;4.28;98.46;101054.34;5054113;28;20426;-73
2023/12/07 01:50:56;;;;;;;24.00;7.00;;;;;;;4.19;98.02;101050.84;5052502;28;20036;-73
2023/12/07 01:53:24;;;;;;;13.57;6.07;;;;;;;4.22;98.67;101056.34;5052728;28;20037;-73
2023/12/07 01:55:52;;;;;;;16.48;8.32;;;;;;;4.27;98.15;101060.78;5055055;28;20041;-73
2023/12/07 01:58:19;;;;;;;12.15;5.35;;;;;;;4.25;98.32;101066.44;5044973;28;20090;-73
2023/12/07 02:00:45;;;;;;;18.90;8.00;;;;;;;4.25;98.21;101068.31;5058362;28;20506;-73
2023/12/07 02:03:12;;;;;;;15.75;5.88;;;;;;;4.22;98.63;101063.59;5054113;28;20479;-74
2023/12/07 02:05:42;;;;;;;14.57;5.45;;;;;;;4.30;98.01;101060.97;5070505;28;20029;-74
2023/12/07 02:08:08;;;;;;;25.33;7.78;;;;;;;4.28;98.18;101059.69;5058929;28;20052;-73
2023/12/07 02:10:33;;;;;;;13.60;6.05;;;;;;;4.25;97.70;101057.63;5057205;28;20414;-73
2023/12/07 02:12:59;;;;;;;12.77;5.68;;;;;;;4.25;98.22;101057.63;5055545;28;20036;-73
2023/12/07 02:15:24;;;;;;;17.52;8.20;;;;;;;4.26;98.39;101064.53;5058035;28;20044;-73
2023/12/07 02:18:08;;;;;;;15.18;5.25;;;;;;;4.26;97.88;101059.19;5058861;28;20452;-73
2023/12/07 02:20:45;;;;;;;17.30;6.50;;;;;;;4.27;98.45;101060.78;5061779;28;20045;-71
2023/12/07 02:23:14;;;;;;;18.27;6.63;;;;;;;4.30;97.98;101054.84;5065335;28;20052;-73
2023/12/07 02:25:39;;;;;;;23.30;7.90;;;;;;;4.34;97.71;101056.63;5062865;28;20037;-73
2023/12/07 02:28:04;;;;;;;22.38;7.22;;;;;;;4.37;97.93;101068.56;5066707;28;20236;-74
2023/12/07 02:30:30;;;;;;;18.73;7.65;;;;;;;4.31;98.04;101062.56;5062911;28;20041;-74
2023/12/07 02:32:55;;;;;;;12.43;6.97;;;;;;;4.28;98.18;101071.16;5059219;28;20112;-72
2023/12/07 02:35:21;;;;;;;10.07;5.70;;;;;;;4.28;98.27;101073.00;5062089;28;20128;-73
2023/12/07 02:37:51;;;;;;;10.13;4.10;;;;;;;4.34;98.19;101074.47;5079744;28;20037;-73
2023/12/07 02:40:25;;;;;;;14.13;5.68;;;;;;;4.34;97.95;101069.94;5056278;28;20037;-73
2023/12/07 02:42:53;;;;;;;14.23;6.57;;;;;;;4.32;97.52;101071.31;5073862;28;20037;-73
2023/12/07 02:45:18;;;;;;;16.33;6.82;;;;;;;4.33;97.78;101070.25;5063776;28;20127;-73
2023/12/07 02:47:45;;;;;;;10.70;5.95;;;;;;;4.30;98.10;101073.50;5058017;28;20594;-72
2023/12/07 02:50:11;;;;;;;15.32;4.38;;;;;;;4.29;97.89;101074.59;5057416;28;20433;-74
2023/12/07 02:52:37;;;;;;;13.82;5.07;;;;;;;4.33;97.67;101075.59;5062577;28;20048;-73
2023/12/07 02:55:03;;;;;;;13.05;6.38;;;;;;;4.33;98.18;101080.91;5040901;28;20033;-74
2023/12/07 02:57:29;;;;;;;13.35;6.90;;;;;;;4.25;98.06;101077.09;5056005;28;20033;-73
2023/12/07 02:59:55;;;;;;;11.55;5.70;;;;;;;4.26;98.22;101080.53;5056327;28;20055;-74
2023/12/07 03:02:20;;;;;;;9.45;4.97;;;;;;;4.26;98.19;101083.19;5056143;28;20456;-73
2023/12/07 03:04:46;;;;;;;18.05;5.43;;;;;;;4.34;98.11;101087.81;5054952;28;20037;-74
2023/12/07 03:07:11;;;;;;;11.65;5.70;;;;;;;4.35;97.57;101086.72;5064408;28;20058;-74
2023/12/07 03:09:36;;;;;;;15.13;7.05;;;;;;;4.33;97.68;101084.38;5037647;28;20494;-73
2023/12/07 03:12:02;;;;;;;10.80;6.45;;;;;;;4.33;97.55;101088.91;5071516;28;20037;-73
2023/12/07 03:14:27;;;;;;;7.03;4.30;;;;;;;4.34;97.47;101091.25;5054890;28;20116;-72
2023/12/07 03:16:53;;;;;;;15.23;5.75;;;;;;;4.35;97.22;101094.72;5055691;28;20120;-73
2023/12/07 03:19:19;;;;;;;11.80;5.18;;;;;;;4.29;98.07;101093.25;5062880;28;20043;-73
2023/12/07 03:21:44;;;;;;;12.98;7.82;;;;;;;4.34;97.61;101091.25;5073156;28;20518;-73
2023/12/07 03:24:10;;;;;;;12.63;6.53;;;;;;;4.37;97.72;101089.88;5062813;28;20078;-74
2023/12/07 03:26:36;;;;;;;15.30;6.50;;;;;;;4.36;97.24;101088.28;5055785;28;20055;-73
2023/12/07 03:29:02;;;;;;;21.38;6.68;;;;;;;4.30;98.03;101089.50;5062856;28;20029;-73
2023/12/07 03:31:28;;;;;;;13.93;5.25;;;;;;;4.33;97.80;101087.03;5076031;28;20035;-74
2023/12/07 03:33:54;;;;;;;26.92;9.13;;;;;;;4.29;97.32;101090.59;5063950;28;20094;-73
2023/12/07 03:36:20;;;;;;;17.83;5.40;;;;;;;4.28;98.25;101095.13;5058851;28;20028;-74
2023/12/07 03:38:45;;;;;;;12.98;5.57;;;;;;;4.34;97.73;101093.94;5056579;28;20104;-73
2023/12/07 03:41:11;;;;;;;16.83;6.35;;;;;;;4.36;97.00;101093.63;5063850;28;20020;-73
2023/12/07 03:43:36;;;;;;;14.60;5.80;;;;;;;4.33;97.38;101091.56;5057407;28;20059;-73
2023/12/07 03:46:06;;;;;;;16.25;6.30;;;;;;;4.32;97.48;101100.63;5049066;28;20033;-74
2023/12/07 03:48:34;;;;;;;16.77;5.90;;;;;;;4.27;97.88;101098.09;5073431;28;20083;-74
2023/12/07 03:51:00;;;;;;;19.48;7.28;;;;;;;4.28;98.31;101095.13;5063776;28;20032;-74
2023/12/07 03:53:26;;;;;;;9.88;5.30;;;;;;;4.28;97.93;101095.13;5060518;28;20033;-73
2023/12/07 03:55:52;;;;;;;17.48;7.95;;;;;;;4.36;97.56;101102.41;5063097;28;20032;-74
2023/12/07 03:58:17;;;;;;;10.75;5.15;;;;;;;4.30;97.26;101103.63;5063443;28;20127;-73
2023/12/07 04:00:44;;;;;;;18.70;5.45;;;;;;;4.25;98.12;101100.28;5060372;28;20566;-73
2023/12/07 04:03:10;;;;;;;10.10;6.18;;;;;;;4.24;98.47;101101.38;5065262;28;20103;-74
2023/12/07 04:05:35;;;;;;;23.15;7.68;;;;;;;4.26;98.30;101091.97;5058167;28;20135;-74
2023/12/07 04:08:01;;;;;;;15.32;6.88;;;;;;;4.32;97.86;101095.31;5062804;28;20112;-73
2023/12/07 04:10:26;;;;;;;11.32;5.38;;;;;;;4.35;98.37;101097.38;5060144;28;20431;-73
2023/12/07 04:12:55;;;;;;;18.70;5.70;;;;;;;4.33;98.05;101099.56;5056856;28;20065;-74
2023/12/07 04:15:20;;;;;;;15.80;6.47;;;;;;;4.30;97.86;101106.28;5056249;28;20511;-73
2023/12/07 04:17:46;;;;;;;11.77;5.03;;;;;;;4.35;97.35;101106.19;5060846;28;20033;-73
2023/12/07 04:20:13;;;;;;;12.63;6.38;;;;;;;4.36;97.52;101109.63;5058404;28;20167;-74
2023/12/07 04:22:39;;;;;;;11.23;6.28;;;;;;;4.27;97.97;101119.44;5064247;28;20031;-74
2023/12/07 04:25:05;;;;;;;18.65;7.97;;;;;;;4.28;98.14;101110.31;5057906;28;20025;-73
2023/12/07 04:27:31;;;;;;;15.73;5.65;;;;;;;4.37;98.39;101113.88;5061207;28;20380;-73
2023/12/07 04:29:57;;;;;;;13.35;6.63;;;;;;;4.35;97.95;101106.19;5060045;28;20611;-73
2023/12/07 04:32:22;;;;;;;13.23;6.32;;;;;;;4.41;97.41;101115.63;5055057;28;20029;-73
2023/12/07 04:34:48;;;;;;;12.07;5.55;;;;;;;4.44;96.79;101107.03;5058763;28;20483;-73
2023/12/07 04:37:13;;;;;;;16.02;6.38;;;;;;;4.34;97.52;101109.91;5057626;28;20074;-74
2023/12/07 04:39:38;;;;;;;19.50;7.45;;;;;;;4.34;97.75;101109.13;5055171;28;20456;-73
2023/12/07 04:42:04;;;;;;;17.85;6.45;;;;;;;4.38;97.74;101099.44;5073366;28;20029;-73
2023/12/07 04:44:29;;;;;;;11.18;5.78;;;;;;;4.45;97.03;101111.25;5060852;28;20054;-73
2023/12/07 04:46:55;;;;;;;14.43;6.40;;;;;;;4.37;97.45;101108.53;5056866;28;20033;-74
2023/12/07 04:49:20;;;;;;;21.08;6.07;;;;;;;4.35;97.75;101121.38;5057160;28;20043;-73
2023/12/07 04:51:49;;;;;;;16.88;5.72;;;;;;;4.32;98.25;101116.63;5056231;28;20190;-74
2023/12/07 04:54:14;;;;;;;14.35;7.55;;;;;;;4.31;97.87;101115.06;5054632;28;20052;-73
2023/12/07 04:56:41;;;;;;;12.63;6.97;;;;;;;4.35;98.14;101121.38;5037702;28;20106;-73
2023/12/07 04:59:06;;;;;;;17.75;6.65;;;;;;;4.34;98.17;101123.25;5052727;28;21326;-73
2023/12/07 05:01:31;;;;;;;14.05;5.82;;;;;;;4.36;97.89;101122.94;5054920;28;20037;-73
2023/12/07 05:03:57;;;;;;;14.18;6.90;;;;;;;4.35;98.10;101116.06;5042364;28;20442;-73
2023/12/07 05:06:22;;;;;;;16.90;6.18;;;;;;;4.40;97.83;101129.25;5056692;28;20498;-73
2023/12/07 05:08:48;;;;;;;11.40;6.32;;;;;;;4.44;97.98;101140.88;5064099;28;20044;-73
2023/12/07 05:11:13;;;;;;;10.77;5.18;;;;;;;4.41;97.79;101136.19;5056860;28;20036;-74
2023/12/07 05:13:41;;;;;;;26.73;8.50;;;;;;;4.33;98.14;101140.34;5059323;28;20037;-74
2023/12/07 05:16:08;;;;;;;10.68;5.72;;;;;;;4.36;98.06;101144.25;5061297;28;20056;-74
2023/12/07 05:18:33;;;;;;;14.20;6.40;;;;;;;4.40;97.84;101143.38;5062948;28;20044;-74
2023/12/07 05:20:58;;;;;;;11.70;5.32;;;;;;;4.38;97.95;101136.75;5063200;28;20037;-74
2023/12/07 05:23:24;;;;;;;14.68;6.43;;;;;;;4.39;97.97;101133.03;5061393;28;20039;-74
2023/12/07 05:25:50;;;;;;;19.92;7.15;;;;;;;4.38;97.51;101134.88;5040807;28;20029;-73
2023/12/07 05:28:15;;;;;;;14.13;5.97;;;;;;;4.33;97.26;101144.88;5066432;28;20024;-74
2023/12/07 05:30:41;;;;;;;15.10;5.57;;;;;;;4.33;98.13;101139.56;5057822;28;20500;-74
2023/12/07 05:33:09;;;;;;;10.23;4.28;;;;;;;4.34;98.23;101147.25;5064685;28;20078;-74
2023/12/07 05:35:34;;;;;;;9.90;4.50;;;;;;;4.38;97.87;101139.44;5055403;28;20072;-74
2023/12/07 05:37:59;;;;;;;20.45;6.85;;;;;;;4.36;98.22;101138.94;5062435;28;20056;-74
2023/12/07 05:40:26;;;;;;;10.65;5.43;;;;;;;4.40;97.88;101146.03;5059501;28;20032;-74
2023/12/07 05:42:51;;;;;;;12.75;5.85;;;;;;;4.34;97.89;101147.25;5063305;28;20033;-74
2023/12/07 05:45:17;;;;;;;17.73;6.85;;;;;;;4.35;97.96;101150.69;5076981;28;20028;-73
2023/12/07 05:47:42;;;;;;;15.27;6.35;;;;;;;4.32;97.99;101145.97;5059836;28;20060;-74
2023/12/07 05:50:08;;;;;;;17.67;6.38;;;;;;;4.33;98.18;101155.53;5059844;28;20140;-74
2023/12/07 05:52:33;;;;;;;12.30;5.43;;;;;;;4.34;98.42;101157.09;5059791;28;20120;-74
2023/12/07 05:54:59;;;;;;;18.17;6.40;;;;;;;4.40;98.21;101151.38;5060413;28;20078;-74
2023/12/07 05:57:25;;;;;;;11.98;5.85;;;;;;;4.39;98.00;101149.78;5065180;28;20025;-74
2023/12/07 05:59:50;;;;;;;13.18;6.05;;;;;;;4.45;97.40;101153.91;5058478;28;20025;-74
2023/12/07 06:02:16;;;;;;;11.98;6.00;;;;;;;4.42;97.40;101149.19;5057104;28;20406;-74
2023/12/07 06:04:41;;;;;;;7.78;4.07;;;;;;;4.42;98.12;101149.19;5077746;28;20041;-74
2023/12/07 06:07:07;;;;;;;8.90;5.07;;;;;;;4.45;98.26;101153.16;5061594;28;20033;-74
2023/12/07 06:09:32;;;;;;;12.77;6.32;;;;;;;4.46;97.67;101150.16;5050640;28;20534;-71
2023/12/07 06:11:58;;;;;;;19.88;5.85;;;;;;;4.43;97.88;101150.00;5064201;28;20067;-74
2023/12/07 06:14:23;;;;;;;12.65;5.47;;;;;;;4.46;97.65;101146.72;5059549;28;20049;-73
2023/12/07 06:16:49;;;;;;;6.68;4.68;;;;;;;4.43;97.82;101156.09;5067529;28;20040;-74
2023/12/07 06:19:14;;;;;;;8.10;4.88;;;;;;;4.44;98.12;101152.34;5060972;28;20036;-74
2023/12/07 06:21:40;;;;;;;13.40;5.55;;;;;;;4.45;98.26;101158.47;5066147;28;20032;-74
2023/12/07 06:24:06;;;;;;;10.70;6.18;;;;;;;4.50;98.14;101163.69;5058229;28;20086;-74
2023/12/07 06:26:32;;;;;;;14.77;5.57;;;;;;;4.46;97.66;101162.72;5055422;28;20040;-74
2023/12/07 06:28:58;;;;;;;11.68;5.22;;;;;;;4.46;97.86;101160.84;5057600;28;20097;-74
2023/12/07 06:31:23;;;;;;;13.85;5.95;;;;;;;4.47;98.15;101162.41;5060106;28;20037;-74
2023/12/07 06:33:49;;;;;;;9.20;4.70;;;;;;;4.49;97.87;101162.13;5055405;28;20033;-74
2023/12/07 06:36:19;;;;;;;13.05;5.70;;;;;;;4.44;97.93;101159.56;5064615;28;20048;-73
2023/12/07 06:38:45;;;;;;;5.90;3.97;;;;;;;4.44;98.23;101160.34;5065575;28;20518;-74
2023/12/07 06:41:10;;;;;;;8.82;5.18;;;;;;;4.46;97.88;101168.84;5057544;28;20025;-74
2023/12/07 06:43:35;;;;;;;12.48;6.15;;;;;;;4.45;98.14;101169.91;5078549;28;20032;-73
2023/12/07 06:46:01;;;;;;;7.60;3.97;;;;;;;4.47;97.93;101170.41;5062576;28;20495;-74
2023/12/07 06:48:26;;;;;;;9.52;4.13;;;;;;;4.49;98.10;101164.78;5060065;28;20506;-74
2023/12/07 06:50:52;;;;;;;15.05;5.68;;;;;;;4.50;97.73;101179.69;5073225;28;20067;-74
2023/12/07 06:53:18;;;;;;;13.05;5.32;;;;;;;4.51;98.03;101179.38;5050021;28;20116;-74
2023/12/07 06:55:44;;;;;;;10.88;4.85;;;;;;;4.50;97.61;101188.47;5063507;28;20040;-74
2023/12/07 06:58:10;;;;;;;14.80;5.50;;;;;;;4.55;97.56;101198.22;5062307;28;20115;-74
2023/12/07 07:00:36;;;;;;;10.68;5.45;;;;;;;4.52;97.87;101190.84;5049576;28;20128;-74
2023/12/07 07:03:02;;;;;;;13.32;5.88;;;;;;;4.56;97.59;101194.47;5057619;28;20037;-74
2023/12/07 07:05:27;;;;;;;14.35;6.80;;;;;;;4.52;97.67;101193.50;5064880;28;20770;-74
2023/12/07 07:07:53;;;;;;;10.45;4.88;;;;;;;4.56;98.04;101189.94;5059785;28;20056;-74
2023/12/07 07:10:18;;;;;;;12.55;5.25;;;;;;;4.56;97.40;101189.94;5060201;28;20025;-74
2023/12/07 07:12:44;;;;;;;15.00;6.70;;;;;;;4.51;97.60;101197.25;5061190;28;20119;-74
2023/12/07 07:15:09;;;;;;;14.32;5.38;;;;;;;4.52;98.18;101201.50;5063755;28;20510;-74
2023/12/07 07:17:35;;;;;;;11.52;5.97;;;;;;;4.56;98.00;101186.47;5058573;28;20460;-74
2023/12/07 07:20:00;;;;;;;9.68;5.82;;;;;;;4.59;97.61;101191.19;5063301;28;20024;-74
2023/12/07 07:22:26;;;;;;;21.33;5.00;;;;;;;4.55;97.33;101190.22;5075348;28;20127;-74
2023/12/07 07:24:52;;;;;;;9.50;4.78;;;;;;;4.51;98.20;101199.91;5056844;28;20071;-74
2023/12/07 07:27:17;;;;;;;12.07;5.70;;;;;;;4.50;98.06;101209.00;5060569;28;20032;-74
2023/12/07 07:29:43;;;;;;;11.38;5.32;;;;;;;4.55;97.69;101214.22;5063253;28;20043;-74
2023/12/07 07:32:08;;;;;;;18.10;7.75;;;;;;;4.54;98.07;101208.13;5076873;28;20039;-74
2023/12/07 07:34:34;;;;;;;8.52;4.55;;;;;;;4.52;98.64;101209.50;5059895;28;20083;-74
2023/12/07 07:36:59;;;;;;;5.10;3.65;;;;;;;4.51;98.03;101206.03;5062455;28;20043;-74
2023/12/07 07:39:25;;;;;;;15.77;6.55;;;;;;;4.54;98.24;101202.78;5063959;28;20132;-74
2023/12/07 07:41:50;;;;;;;11.60;5.93;;;;;;;4.56;98.46;101207.81;5060069;28;20398;-74
2023/12/07 07:44:16;;;;;;;13.85;5.57;;;;;;;4.57;97.55;101188.84;5058944;28;20024;-73
2023/12/07 07:46:42;;;;;;;18.33;5.97;;;;;;;4.62;98.14;101200.47;5064226;28;20040;-74
2023/12/07 07:49:07;;;;;;;15.38;6.07;;;;;;;4.60;98.01;101198.13;5061746;28;20037;-74
2023/12/07 07:51:33;;;;;;;9.88;5.50;;;;;;;4.62;97.72;101200.47;5059553;28;20479;-72
2023/12/07 07:54:01;;;;;;;21.85;6.95;;;;;;;4.61;98.08;101197.03;5055850;28;20032;-74
2023/12/07 07:56:26;;;;;;;11.20;3.97;;;;;;;4.60;97.79;101192.78;5082514;28;20113;-74
2023/12/07 07:58:52;;;;;;;15.75;5.57;;;;;;;4.63;98.36;101208.19;5063986;28;20025;-74
2023/12/07 08:01:17;;;;;;;11.00;4.65;;;;;;;4.64;98.00;101212.44;5060929;28;20036;-74
2023/12/07 08:03:43;;;;;;;16.27;5.70;;;;;;;4.62;98.52;101211.94;5055972;28;20029;-74
2023/12/07 08:06:08;;;;;;;10.32;5.43;;;;;;;4.64;98.14;101217.78;5049450;28;20033;-74
2023/12/07 08:08:34;;;;;;;16.77;6.15;;;;;;;4.65;97.77;101226.53;5060435;28;20024;-74
2023/12/07 08:11:00;;;;;;;17.38;7.38;;;;;;;4.68;97.83;101228.63;5060390;28;20139;-74
2023/12/07 08:13:27;;;;;;;12.68;6.25;;;;;;;4.72;98.33;101230.41;5072638;28;20410;-74
2023/12/07 08:15:53;;;;;;;7.78;5.13;;;;;;;4.78;97.62;101239.06;5060908;28;20028;-74
2023/12/07 08:18:19;;;;;;;11.02;5.93;;;;;;;4.71;97.60;101236.81;5058809;28;20036;-74
2023/12/07 08:20:47;;;;;;;12.93;5.75;;;;;;;4.69;97.79;101228.31;5068988;28;20040;-73
2023/12/07 08:23:12;;;;;;;15.00;5.47;;;;;;;4.76;98.06;101236.72;5056949;28;20133;-74
2023/12/07 08:25:41;;;;;;;13.60;5.30;;;;;;;4.72;97.71;101243.72;5056656;28;20047;-74
2023/12/07 08:28:09;;;;;;;10.93;6.00;;;;;;;4.81;97.47;101243.78;5055094;28;20047;-72
2023/12/07 08:30:34;;;;;;;12.98;7.10;;;;;;;4.74;97.84;101240.75;5052962;28;20548;-73
2023/12/07 08:33:00;;;;;;;11.02;5.43;;;;;;;4.73;97.80;101245.28;5061231;28;20060;-74
2023/12/07 08:35:25;;;;;;;13.00;6.18;;;;;;;4.75;98.13;101255.66;5062091;28;20403;-73
2023/12/07 08:37:51;;;;;;;12.00;5.50;;;;;;;4.80;97.95;101244.91;5055186;28;20043;-74
2023/12/07 08:40:16;;;;;;;15.38;7.57;;;;;;;4.78;98.07;101244.41;5052863;28;20033;-73
2023/12/07 08:42:46;;;;;;;11.90;6.95;;;;;;;4.83;98.38;101242.41;5052964;28;20107;-73
2023/12/07 08:45:13;;;;;;;15.50;6.93;;;;;;;4.88;97.21;101242.28;5055238;28;20581;-74
2023/12/07 08:47:42;;;;;;;9.23;4.80;;;;;;;4.86;97.73;101254.38;5059107;28;20036;-74
2023/12/07 08:50:07;;;;;;;11.43;6.40;;;;;;;4.94;97.12;101257.09;5057422;28;20025;-73
2023/12/07 08:52:33;;;;;;;13.32;5.72;;;;;;;4.91;97.13;101254.22;5061134;28;20411;-74
2023/12/07 08:54:59;;;;;;;8.70;5.43;;;;;;;4.93;97.61;101260.84;5064578;28;20036;-74
2023/12/07 08:57:25;;;;;;;15.95;6.53;;;;;;;4.89;97.59;101259.88;5052918;28;20499;-74
2023/12/07 08:59:50;;;;;;;19.15;6.60;;;;;;;4.88;97.76;101258.28;5060646;28;20036;-73
2023/12/07 09:02:16;;;;;;;13.95;6.05;;;;;;;5.00;97.21;101255.88;5058392;28;20099;-73
2023/12/07 09:04:41;;;;;;;13.82;6.68;;;;;;;4.96;97.00;101252.22;5063960;28;20106;-73
2023/12/07 09:07:07;;;;;;;14.45;6.90;;;;;;;5.01;97.44;101252.13;5064011;28;20084;-73
2023/12/07 09:09:32;;;;;;;16.27;6.70;;;;;;;5.02;97.28;101256.38;5060672;28;20054;-73
2023/12/07 09:11:58;;;;;;;15.35;7.00;;;;;;;5.04;96.65;101256.06;5078867;28;20516;-73
2023/12/07 09:14:23;;;;;;;17.60;5.80;;;;;;;5.10;96.88;101258.31;5078048;28;20063;-74
2023/12/07 09:16:48;;;;;;;16.13;6.03;;;;;;;5.14;96.35;101263.84;5075033;28;20033;-73
2023/12/07 09:19:14;;;;;;;15.48;7.53;;;;;;;5.14;96.67;101256.63;5063236;28;20111;-74
2023/12/07 09:21:40;;;;;;;12.02;6.68;;;;;;;5.16;95.85;101270.47;5065632;28;20020;-73
2023/12/07 09:24:06;;;;;;;13.52;7.70;;;;;;;5.10;96.34;101266.31;5060627;28;20392;-73
2023/12/07 09:26:32;;;;;;;18.55;7.18;;;;;;;5.00;96.68;101261.22;5062999;28;20039;-73
2023/12/07 09:28:58;;;;;;;12.30;5.45;;;;;;;4.96;97.07;101254.91;5065934;28;20097;-73
2023/12/07 09:31:23;;;;;;;11.27;6.38;;;;;;;4.97;97.32;101266.38;5062665;28;20036;-73
2023/12/07 09:33:48;;;;;;;14.38;8.25;;;;;;;5.01;97.69;101256.69;5065545;28;20065;-73
2023/12/07 09:36:18;;;;;;;16.60;7.15;;;;;;;5.14;96.90;101264.63;5078713;28;20536;-73
2023/12/07 09:38:44;;;;;;;12.75;7.65;;;;;;;5.04;96.64;101266.72;5059911;28;20024;-73
2023/12/07 09:41:09;;;;;;;11.65;5.63;;;;;;;5.04;97.24;101264.84;5064271;28;20033;-74
2023/12/07 09:43:35;;;;;;;15.18;7.65;;;;;;;5.07;97.26;101261.56;5059052;28;20029;-74
2023/12/07 09:46:00;;;;;;;15.57;7.40;;;;;;;5.03;97.13;101276.63;5065601;28;20059;-73
2023/12/07 09:48:26;;;;;;;19.65;7.93;;;;;;;5.04;97.27;101256.84;5061672;28;20029;-72
2023/12/07 09:50:55;;;;;;;16.20;6.60;;;;;;;5.06;97.98;101267.22;5051192;28;20035;-74
2023/12/07 09:53:20;;;;;;;19.02;7.68;;;;;;;5.22;97.60;101266.56;5077089;28;20037;-73
2023/12/07 09:55:46;;;;;;;11.70;6.68;;;;;;;5.29;96.64;101256.25;5058942;28;20033;-74
2023/12/07 09:58:12;;;;;;;12.50;8.13;;;;;;;5.23;96.21;101265.47;5062389;28;20033;-74
2023/12/07 10:00:37;;;;;;;10.95;5.97;;;;;;;5.25;96.63;101262.50;5063441;28;20025;-73
2023/12/07 10:03:04;;;;;;;14.18;7.47;;;;;;;5.24;96.43;101264.41;5059836;28;20060;-74
2023/12/07 10:05:29;;;;;;;12.38;7.22;;;;;;;5.22;96.91;101255.91;5062216;28;20095;-74
2023/12/07 10:07:55;;;;;;;20.10;8.23;;;;;;;5.17;96.50;101261.34;5058017;28;20492;-73
2023/12/07 10:10:20;;;;;;;18.02;6.80;;;;;;;5.10;97.53;101261.00;5056084;28;20032;-74
2023/12/07 10:12:49;;;;;;;13.70;7.22;;;;;;;5.12;98.13;101264.16;5055728;28;20036;-73
2023/12/07 10:15:16;;;;;;;21.60;7.43;;;;;;;5.15;97.41;101268.09;5057254;28;20032;-74
2023/12/07 10:17:51;;;;;;;21.08;8.23;;;;;;;5.17;97.13;101274.69;5060410;28;20047;-74
2023/12/07 10:20:24;;;;;;;13.23;6.25;;;;;;;5.26;96.79;101272.09;5072739;28;20041;-73
2023/12/07 10:23:04;;;;;;;15.55;5.82;;;;;;;5.28;96.15;101276.00;5070694;28;20041;-73
2023/12/07 10:25:35;;;;;;;12.80;5.40;;;;;;;5.30;96.31;101273.06;5079940;28;20029;-74
2023/12/07 10:28:06;;;;;;;15.07;6.75;;;;;;;5.20;97.02;101268.75;5057736;28;20028;-74
2023/12/07 10:30:32;;;;;;;;;;;;;;;5.22;97.06;101271.13;5057244;28;20544;-73
2023/12/07 10:32:57;;;;;;;16.35;7.32;;;;;;;5.21;97.39;101278.34;5058269;28;19920;-74
2023/12/07 10:35:23;;;;;;;10.63;4.47;;;;;;;5.27;96.83;101271.00;5058708;28;20885;-74
2023/12/07 10:37:48;;;;;;;10.88;6.15;;;;;;;5.27;96.61;101269.13;5057345;28;20592;-74
2023/12/07 10:40:14;;;;;;;14.02;5.90;;;;;;;5.38;97.00;101275.00;5056420;28;20028;-74
2023/12/07 10:42:41;;;;;;;14.25;6.30;;;;;;;5.36;96.15;101279.88;5053398;28;20379;-74
2023/12/07 10:45:14;;;;;;;16.60;7.55;;;;;;;5.29;96.15;101269.59;5059524;28;20029;-74
2023/12/07 10:47:40;;;;;;;21.15;7.60;;;;;;;5.27;96.46;101263.78;5079925;28;20020;-73
2023/12/07 10:50:15;;;;;;;17.52;6.13;;;;;;;5.31;97.00;101267.41;5059195;28;20025;-73
2023/12/07 10:52:45;;;;;;;12.13;6.55;;;;;;;5.23;97.13;101272.69;5063864;28;20039;-74
2023/12/07 10:55:19;;;;;;;12.45;6.75;;;;;;;5.27;97.03;101271.78;5063516;28;20031;-74
2023/12/07 10:57:47;;;;;;;18.17;8.25;;;;;;;5.29;97.23;101272.28;5064791;28;20036;-74
2023/12/07 11:00:13;;;;;;;14.75;6.93;;;;;;;5.35;96.97;101276.41;5061567;28;20079;-74
2023/12/07 11:02:41;;;;;;;9.85;5.38;;;;;;;5.34;96.12;101280.16;5068383;28;20025;-74
2023/12/07 11:05:06;;;;;;;15.73;7.55;;;;;;;5.29;97.10;101280.28;5060979;28;20036;-74
2023/12/07 11:07:49;;;;;;;13.90;6.85;;;;;;;5.32;97.31;101273.56;5063789;28;20398;-73
2023/12/07 11:10:45;;;;;;;12.23;5.65;;;;;;;5.31;96.87;101270.09;5060248;28;20028;-73
2023/12/07 11:13:29;;;;;;;11.38;6.30;;;;;;;5.25;97.47;101273.97;5020901;28;20106;-74
2023/12/07 11:15:55;;;;;;;13.57;6.40;;;;;;;5.30;97.93;101271.16;5058258;28;20052;-73
2023/12/07 11:18:21;;;;;;;21.45;7.25;;;;;;;5.31;97.04;101263.94;5067780;28;20036;-73
2023/12/07 11:20:47;;;;;;;12.00;5.57;;;;;;;5.35;97.44;101268.38;5062879;28;20429;-74
2023/12/07 11:23:19;;;;;;;13.85;6.18;;;;;;;5.32;97.77;101273.56;5061267;28;20036;-73